Time;durP1;ratioP1;P1;durP2;ratioP2;P2;SDS_P1;SDS_P2;PMS_P1;PMS_P2;Temp;Humidity;BMP_temperature;BMP_pressure;BME280_temperature;BME280_humidity;BME280_pressure;Samples;Min_cycle;Max_cycle;Signal;HPM_P1;HPM_P2
2021/11/14 00:00:19;;;;;;;47.80;14.18;;;;;;;8.29;100.00;101878.78;5054144;28;20392;-80
2021/11/14 00:02:45;;;;;;;46.88;14.15;;;;;;;8.29;100.00;101877.94;5054483;28;20477;-80
2021/11/14 00:05:11;;;;;;;37.78;13.98;;;;;;;8.28;100.00;101870.94;5054190;28;20025;-80
2021/11/14 00:07:37;;;;;;;31.83;12.75;;;;;;;8.28;100.00;101882.41;5053991;28;20559;-79
2021/11/14 00:10:05;;;;;;;33.72;13.93;;;;;;;8.26;100.00;101871.03;5054361;28;20036;-80
2021/11/14 00:12:30;;;;;;;38.70;14.25;;;;;;;8.27;100.00;101878.03;5053428;28;20466;-79
2021/11/14 00:14:55;;;;;;;38.03;13.48;;;;;;;8.27;100.00;101885.13;5053881;28;20057;-80
2021/11/14 00:17:21;;;;;;;34.17;14.30;;;;;;;8.27;100.00;101891.31;5053953;28;20072;-80
2021/11/14 00:19:46;;;;;;;39.60;13.73;;;;;;;8.26;100.00;101891.41;5054023;28;20371;-80
2021/11/14 00:22:12;;;;;;;33.00;12.93;;;;;;;8.26;100.00;101892.25;5053820;28;20067;-80
2021/11/14 00:24:37;;;;;;;35.80;12.88;;;;;;;8.26;100.00;101896.69;5053415;28;20098;-80
2021/11/14 00:27:03;;;;;;;30.35;13.70;;;;;;;8.26;100.00;101902.84;5053766;28;20061;-80
2021/11/14 00:29:28;;;;;;;38.13;14.48;;;;;;;8.26;100.00;101900.19;5053251;28;20029;-80
2021/11/14 00:31:53;;;;;;;32.63;12.98;;;;;;;8.25;100.00;101898.47;5053647;28;20032;-80
2021/11/14 00:34:19;;;;;;;32.97;12.82;;;;;;;8.26;100.00;101908.16;5053150;28;20036;-80
2021/11/14 00:36:45;;;;;;;45.85;13.02;;;;;;;8.27;100.00;101903.69;5053789;28;20064;-79
2021/11/14 00:39:16;;;;;;;34.65;12.27;;;;;;;8.28;100.00;101908.06;5052703;28;20033;-80
2021/11/14 00:41:42;;;;;;;;;;;;;;;8.29;100.00;101904.47;5053955;28;20025;-80
2021/11/14 00:44:08;;;;;;;33.85;11.95;;;;;;;8.28;100.00;101902.75;5053360;28;19970;-79
2021/11/14 00:46:34;;;;;;;36.70;12.25;;;;;;;8.27;100.00;101914.28;5053062;28;20029;-80
2021/11/14 00:49:00;;;;;;;33.60;12.73;;;;;;;8.25;100.00;101909.09;5053101;28;20068;-79
2021/11/14 00:51:29;;;;;;;38.72;12.75;;;;;;;8.23;100.00;101912.81;5052872;28;20037;-80
2021/11/14 00:53:59;;;;;;;40.47;12.95;;;;;;;8.22;100.00;101911.09;5053337;28;20060;-80
2021/11/14 00:56:25;;;;;;;40.38;12.93;;;;;;;8.21;100.00;101904.09;5052841;28;20033;-79
2021/11/14 00:58:51;;;;;;;34.53;12.07;;;;;;;8.19;100.00;101904.19;5053234;28;20037;-80
2021/11/14 01:01:18;;;;;;;33.28;12.60;;;;;;;8.18;100.00;101905.16;5053396;28;20044;-80
2021/11/14 01:03:43;;;;;;;44.60;13.27;;;;;;;8.19;100.00;101914.78;5053299;28;20055;-79
2021/11/14 01:06:09;;;;;;;32.92;12.85;;;;;;;8.19;100.00;101912.13;5035337;28;20036;-80
2021/11/14 01:08:34;;;;;;;31.27;12.30;;;;;;;8.20;100.00;101915.66;5052519;28;20481;-80
2021/11/14 01:11:02;;;;;;;33.85;12.65;;;;;;;8.18;100.00;101921.06;5052890;28;20095;-80
2021/11/14 01:13:28;;;;;;;27.52;12.07;;;;;;;8.17;100.00;101916.69;5052635;28;20099;-80
2021/11/14 01:15:55;;;;;;;32.63;12.88;;;;;;;8.15;100.00;101915.94;5053007;28;20037;-80
2021/11/14 01:18:21;;;;;;;33.90;12.65;;;;;;;8.15;100.00;101926.56;5052189;28;20358;-79
2021/11/14 01:20:50;;;;;;;31.45;12.75;;;;;;;8.14;100.00;101932.78;5052885;28;20032;-80
2021/11/14 01:23:16;;;;;;;33.53;14.18;;;;;;;8.13;100.00;101928.44;5052765;28;20067;-80
2021/11/14 01:25:44;;;;;;;27.85;12.85;;;;;;;8.14;100.00;101935.44;5052203;28;20029;-80
2021/11/14 01:28:10;;;;;;;36.88;14.80;;;;;;;8.14;100.00;101946.06;5052851;28;20085;-80
2021/11/14 01:30:40;;;;;;;36.70;14.30;;;;;;;8.15;100.00;101947.75;5052343;28;20029;-80
2021/11/14 01:33:08;;;;;;;38.00;14.07;;;;;;;8.16;100.00;101946.78;5052675;28;20028;-80
2021/11/14 01:35:34;;;;;;;31.20;13.05;;;;;;;8.17;100.00;101942.38;5052227;28;20037;-80
2021/11/14 01:38:00;;;;;;;35.15;14.65;;;;;;;8.16;100.00;101949.44;5052566;28;20037;-80
2021/11/14 01:40:35;;;;;;;36.10;13.88;;;;;;;8.16;100.00;101951.25;5052533;28;20033;-80
2021/11/14 01:43:01;;;;;;;49.13;14.35;;;;;;;8.15;100.00;101939.81;5052563;28;20029;-80
2021/11/14 01:45:27;;;;;;;32.58;13.70;;;;;;;8.15;100.00;101946.91;5052578;28;20474;-79
2021/11/14 01:47:52;;;;;;;37.25;14.00;;;;;;;8.16;100.00;101954.75;5052722;28;20175;-79
2021/11/14 01:50:19;;;;;;;31.80;12.90;;;;;;;8.16;100.00;101957.41;5053868;28;20061;-79
2021/11/14 01:52:47;;;;;;;34.20;14.20;;;;;;;8.15;100.00;101958.38;5040947;28;20051;-79
2021/11/14 01:55:16;;;;;;;46.95;14.82;;;;;;;8.15;100.00;101954.84;5059407;28;20029;-79
2021/11/14 01:57:42;;;;;;;44.08;14.70;;;;;;;8.14;100.00;101961.97;5058682;28;20025;-80
2021/11/14 02:00:14;;;;;;;36.50;14.85;;;;;;;8.14;100.00;101961.13;5058994;28;20086;-80
2021/11/14 02:02:39;;;;;;;31.77;14.30;;;;;;;8.14;100.00;101971.72;5058581;28;20029;-79
2021/11/14 02:05:06;;;;;;;43.55;16.27;;;;;;;8.14;100.00;101963.78;5059019;28;20112;-80
2021/11/14 02:07:32;;;;;;;42.85;15.77;;;;;;;8.14;100.00;101966.41;5058335;28;20037;-80
2021/11/14 02:09:58;;;;;;;40.33;15.77;;;;;;;8.11;100.00;101968.28;5041486;28;20426;-80
2021/11/14 02:12:23;;;;;;;43.10;16.10;;;;;;;8.11;100.00;101970.09;5041076;28;20125;-80
2021/11/14 02:14:49;;;;;;;40.85;15.73;;;;;;;8.12;100.00;101975.31;5058497;28;20032;-80
2021/11/14 02:17:15;;;;;;;49.97;15.95;;;;;;;8.11;100.00;101976.25;5058992;28;20033;-80
2021/11/14 02:19:40;;;;;;;35.42;15.70;;;;;;;8.12;100.00;101974.44;5058518;28;20029;-80
2021/11/14 02:22:06;;;;;;;39.80;15.70;;;;;;;8.11;100.00;101981.53;5040890;28;20075;-80
2021/11/14 02:24:31;;;;;;;45.95;15.85;;;;;;;8.11;100.00;101983.34;5058619;28;20029;-80
2021/11/14 02:26:57;;;;;;;38.78;15.48;;;;;;;8.10;100.00;101982.47;5041018;28;20083;-80
2021/11/14 02:29:22;;;;;;;39.10;16.48;;;;;;;8.09;100.00;101987.88;5059018;28;20029;-81
2021/11/14 02:31:48;;;;;;;40.70;14.55;;;;;;;8.07;100.00;101990.63;5058380;28;20057;-80
2021/11/14 02:34:14;;;;;;;42.28;16.30;;;;;;;8.06;100.00;101996.91;5058744;28;20029;-80
2021/11/14 02:36:40;;;;;;;38.95;15.55;;;;;;;8.07;100.00;102003.03;5058422;28;20123;-80
2021/11/14 02:39:07;;;;;;;40.05;15.88;;;;;;;8.06;100.00;102002.19;5058895;28;20087;-80
2021/11/14 02:41:33;;;;;;;42.45;16.90;;;;;;;8.07;100.00;101995.09;5060928;22;20464;-79
2021/11/14 02:43:59;;;;;;;48.25;17.98;;;;;;;8.06;100.00;102001.31;5021250;28;20033;-80
2021/11/14 02:46:26;;;;;;;41.28;16.17;;;;;;;8.05;100.00;102008.44;5038675;28;20087;-80
2021/11/14 02:48:51;;;;;;;45.35;17.25;;;;;;;8.05;100.00;102008.44;5038431;28;20170;-79
2021/11/14 02:51:21;;;;;;;43.90;17.75;;;;;;;8.08;100.00;102016.19;5038518;28;20065;-79
2021/11/14 02:53:48;;;;;;;52.28;18.55;;;;;;;8.09;100.00;102007.31;5038263;28;20021;-79
2021/11/14 02:56:14;;;;;;;54.15;18.15;;;;;;;8.10;100.00;102011.66;5038839;28;20033;-81
2021/11/14 02:58:42;;;;;;;48.80;17.90;;;;;;;8.11;100.00;102012.53;5038187;28;20112;-81
2021/11/14 03:01:16;;;;;;;51.50;18.20;;;;;;;8.12;100.00;102015.06;5038504;28;20120;-81
2021/11/14 03:03:44;;;;;;;51.28;18.45;;;;;;;8.14;100.00;102016.78;5034141;28;20108;-81
2021/11/14 03:06:10;;;;;;;56.53;18.73;;;;;;;8.17;100.00;102016.59;5035548;28;20474;-81
2021/11/14 03:08:35;;;;;;;52.90;19.20;;;;;;;8.17;100.00;102020.09;5035143;28;20030;-81
2021/11/14 03:11:02;;;;;;;50.40;18.77;;;;;;;8.16;100.00;102015.72;5017646;28;20045;-81
2021/11/14 03:13:27;;;;;;;47.17;18.40;;;;;;;8.14;100.00;102016.78;5035260;28;20060;-81
2021/11/14 03:15:58;;;;;;;49.28;18.80;;;;;;;8.12;100.00;102024.81;5034873;28;20485;-81
2021/11/14 03:18:24;;;;;;;49.47;18.38;;;;;;;8.10;100.00;102029.38;5035225;28;20033;-81
2021/11/14 03:20:51;;;;;;;46.42;18.10;;;;;;;8.07;100.00;102024.25;5034682;28;20033;-81
2021/11/14 03:23:18;;;;;;;44.50;18.77;;;;;;;8.05;100.00;102032.28;5035010;28;20397;-80
2021/11/14 03:25:44;;;;;;;43.95;18.80;;;;;;;8.05;100.00;102039.41;5034703;28;20033;-80
2021/11/14 03:28:11;;;;;;;52.85;21.42;;;;;;;8.07;100.00;102042.81;5034963;28;20025;-80
2021/11/14 03:30:37;;;;;;;53.20;20.02;;;;;;;8.08;100.00;102045.34;5034483;28;20041;-80
2021/11/14 03:33:09;;;;;;;56.20;21.20;;;;;;;8.11;100.00;102052.28;5034877;28;20033;-80
2021/11/14 03:35:55;;;;;;;56.25;20.50;;;;;;;8.12;100.00;102052.19;5034773;28;20026;-79
2021/11/14 03:38:34;;;;;;;58.00;20.83;;;;;;;8.15;100.00;102052.94;5034704;28;20069;-81
2021/11/14 03:41:01;;;;;;;59.50;21.17;;;;;;;8.17;100.00;102057.22;5034714;28;20052;-79
2021/11/14 03:43:28;;;;;;;53.08;22.63;;;;;;;8.19;100.00;102047.34;5034529;28;20041;-79
2021/11/14 03:45:53;;;;;;;56.63;22.52;;;;;;;8.21;100.00;102053.44;5016790;28;20029;-79
2021/11/14 03:48:19;;;;;;;62.78;24.77;;;;;;;8.24;100.00;102062.97;5034561;28;20397;-79
2021/11/14 03:50:45;;;;;;;71.88;24.98;;;;;;;8.26;100.00;102066.41;5034112;28;20025;-79
2021/11/14 03:53:12;;;;;;;66.40;26.52;;;;;;;8.27;100.00;102062.78;5034480;28;20044;-79
2021/11/14 03:55:38;;;;;;;57.40;24.77;;;;;;;8.28;100.00;102070.66;5034137;28;20163;-78
2021/11/14 03:58:05;;;;;;;73.50;27.75;;;;;;;8.29;100.00;102063.56;5034531;28;20034;-80
2021/11/14 04:00:36;;;;;;;69.07;26.70;;;;;;;8.30;100.00;102073.22;5034367;28;20042;-79
2021/11/14 04:03:04;;;;;;;79.07;29.60;;;;;;;8.29;100.00;102072.34;5034428;28;20108;-79
2021/11/14 04:05:30;;;;;;;90.25;30.35;;;;;;;8.29;100.00;102075.00;5016918;28;20033;-79
2021/11/14 04:07:59;;;;;;;86.50;31.38;;;;;;;8.30;100.00;102073.22;5033678;28;20359;-80
2021/11/14 04:10:26;;;;;;;89.53;33.40;;;;;;;8.31;100.00;102082.88;5016934;28;20067;-80
2021/11/14 04:12:52;;;;;;;79.47;31.08;;;;;;;8.32;100.00;102078.44;5033844;28;20095;-79
2021/11/14 04:15:18;;;;;;;85.38;31.92;;;;;;;8.31;100.00;102088.16;5034063;28;20478;-80
2021/11/14 04:17:44;;;;;;;86.15;32.95;;;;;;;8.32;100.00;102089.88;5033962;28;20485;-80
2021/11/14 04:20:12;;;;;;;96.90;34.65;;;;;;;8.33;100.00;102088.06;5034175;28;20044;-80
2021/11/14 04:22:39;;;;;;;99.40;34.78;;;;;;;8.32;100.00;102089.88;5033921;28;20034;-81
2021/11/14 04:25:06;;;;;;;98.40;33.83;;;;;;;8.34;100.00;102101.25;5033647;28;20041;-80
2021/11/14 04:27:32;;;;;;;119.95;36.85;;;;;;;8.34;100.00;102098.59;5034069;28;20036;-80
2021/11/14 04:29:57;;;;;;;116.15;36.58;;;;;;;8.34;100.00;102095.94;5033448;28;20029;-80
2021/11/14 04:32:23;;;;;;;118.65;37.17;;;;;;;8.36;100.00;102109.09;5033729;28;20034;-80
2021/11/14 04:34:48;;;;;;;111.72;36.05;;;;;;;8.35;100.00;102100.31;5033337;28;20466;-80
2021/11/14 04:37:14;;;;;;;132.43;38.97;;;;;;;8.37;100.00;102101.06;5033876;28;20041;-82
2021/11/14 04:39:39;;;;;;;130.27;39.15;;;;;;;8.38;100.00;102102.78;5033421;28;20029;-79
2021/11/14 04:42:07;;;;;;;131.85;38.67;;;;;;;8.40;100.00;102110.63;5032993;28;20050;-80
2021/11/14 04:44:36;;;;;;;128.63;38.45;;;;;;;8.41;100.00;102109.69;5015884;28;20064;-79
2021/11/14 04:47:03;;;;;;;124.05;37.50;;;;;;;8.41;100.00;102109.69;5032958;28;20033;-79
2021/11/14 04:49:28;;;;;;;115.07;36.42;;;;;;;8.42;100.00;102119.34;5015905;28;20092;-80
2021/11/14 04:51:54;;;;;;;138.18;39.42;;;;;;;8.42;100.00;102112.25;5033027;28;20086;-80
2021/11/14 04:54:20;;;;;;;149.25;38.95;;;;;;;8.42;100.00;102122.84;5015685;28;20041;-80
2021/11/14 04:56:46;;;;;;;143.85;39.80;;;;;;;8.43;100.00;102116.63;5032934;28;20091;-80
2021/11/14 04:59:12;;;;;;;143.48;40.80;;;;;;;8.44;100.00;102122.81;5033214;28;20036;-80
2021/11/14 05:01:38;;;;;;;163.82;42.50;;;;;;;8.45;100.00;102128.00;5015713;28;20448;-80
2021/11/14 05:04:04;;;;;;;160.20;41.33;;;;;;;8.45;100.00;102129.81;5032804;28;20045;-80
2021/11/14 05:06:30;;;;;;;136.90;37.50;;;;;;;8.44;100.00;102123.63;5033100;28;20030;-79
2021/11/14 05:08:55;;;;;;;168.40;41.00;;;;;;;8.46;100.00;102131.50;5032568;28;20022;-80
2021/11/14 05:11:20;;;;;;;151.73;39.22;;;;;;;8.46;100.00;102132.38;5015550;28;20045;-80
2021/11/14 05:13:46;;;;;;;156.25;39.10;;;;;;;8.46;100.00;102134.16;5015120;28;20444;-79
2021/11/14 05:16:11;;;;;;;153.60;39.50;;;;;;;8.47;100.00;102141.19;5033094;28;20504;-80
2021/11/14 05:18:37;;;;;;;158.48;38.70;;;;;;;8.47;100.00;102138.53;5031787;28;20087;-80
2021/11/14 05:21:03;;;;;;;158.85;38.42;;;;;;;8.47;100.00;102139.38;5032476;28;20069;-80
2021/11/14 05:23:28;;;;;;;155.82;37.88;;;;;;;8.46;100.00;102137.69;5032716;28;20059;-80
2021/11/14 05:25:54;;;;;;;160.50;38.55;;;;;;;8.46;100.00;102137.69;5014270;28;20122;-80
2021/11/14 05:28:19;;;;;;;161.20;36.50;;;;;;;8.45;100.00;102141.28;5032789;28;20033;-80
2021/11/14 05:30:46;;;;;;;156.05;36.15;;;;;;;8.43;100.00;102139.63;5015233;28;20037;-80
2021/11/14 05:33:11;;;;;;;150.77;37.58;;;;;;;8.42;100.00;102151.16;5032401;28;20045;-80
2021/11/14 05:35:37;;;;;;;166.75;36.72;;;;;;;8.42;100.00;102149.38;5032759;28;20029;-80
2021/11/14 05:38:03;;;;;;;151.43;34.95;;;;;;;8.41;100.00;102157.44;5032240;28;20443;-80
2021/11/14 05:40:29;;;;;;;140.25;34.35;;;;;;;8.41;100.00;102158.28;5032590;28;20444;-80
2021/11/14 05:42:54;;;;;;;155.70;35.30;;;;;;;8.40;100.00;102168.97;5032280;28;20056;-80
2021/11/14 05:45:19;;;;;;;134.98;32.50;;;;;;;8.39;100.00;102168.13;5015002;28;20121;-80
2021/11/14 05:47:45;;;;;;;147.32;34.97;;;;;;;8.38;100.00;102169.06;5032619;28;20041;-80
2021/11/14 05:50:11;;;;;;;149.10;34.35;;;;;;;8.36;100.00;102170.97;5032112;28;20025;-80
2021/11/14 05:52:37;;;;;;;136.95;32.95;;;;;;;8.36;100.00;102176.28;5032574;28;20040;-80
2021/11/14 05:55:05;;;;;;;142.30;33.40;;;;;;;8.35;100.00;102179.88;5032477;28;20118;-80
2021/11/14 05:57:38;;;;;;;136.18;31.52;;;;;;;8.34;100.00;102188.75;5032730;28;20030;-80
2021/11/14 06:00:08;;;;;;;146.10;32.20;;;;;;;8.34;100.00;102191.41;5032074;28;20116;-80
2021/11/14 06:07:34;;;;;;;142.45;28.15;;;;;;;8.28;100.00;102200.63;5033435;28;20038;-81
2021/11/14 06:10:01;;;;;;;136.43;30.15;;;;;;;8.28;100.00;102199.75;5034231;28;20133;-81
2021/11/14 06:12:29;;;;;;;126.28;28.42;;;;;;;8.27;100.00;102203.31;5032458;28;20088;-81
2021/11/14 06:14:55;;;;;;;129.38;27.88;;;;;;;8.25;100.00;102206.06;5032043;28;20413;-80
2021/11/14 06:17:20;;;;;;;125.93;27.10;;;;;;;8.22;100.00;102203.59;5032436;28;20637;-81
2021/11/14 06:19:49;;;;;;;130.50;27.85;;;;;;;8.22;100.00;102208.06;5032256;28;20044;-81
2021/11/14 06:22:15;;;;;;;131.32;27.52;;;;;;;8.18;100.00;102211.81;5031978;28;20107;-80
2021/11/14 06:24:41;;;;;;;130.35;27.80;;;;;;;8.17;100.00;102223.41;5032248;28;20397;-81
2021/11/14 06:27:06;;;;;;;153.35;27.65;;;;;;;8.13;100.00;102214.75;5031726;28;20025;-80
2021/11/14 06:29:32;;;;;;;127.97;28.33;;;;;;;8.10;100.00;102221.06;5032411;28;20033;-81
2021/11/14 06:31:58;;;;;;;136.35;28.27;;;;;;;8.06;100.00;102226.66;5031837;28;20039;-80
2021/11/14 06:34:23;;;;;;;132.40;27.85;;;;;;;8.03;100.00;102234.78;5032021;28;20038;-80
2021/11/14 06:36:48;;;;;;;142.13;29.48;;;;;;;7.99;100.00;102230.63;5032402;28;20481;-80
2021/11/14 06:39:14;;;;;;;143.63;29.35;;;;;;;7.94;100.00;102230.84;5034819;28;20034;-79
2021/11/14 06:41:39;;;;;;;144.57;29.92;;;;;;;7.90;100.00;102242.59;5036053;28;20512;-80
2021/11/14 06:44:05;;;;;;;139.98;30.10;;;;;;;7.85;100.00;102249.94;5035198;28;20076;-80
2021/11/14 06:46:30;;;;;;;160.88;30.88;;;;;;;7.80;100.00;102257.31;5035679;28;20079;-80
2021/11/14 06:48:55;;;;;;;142.27;29.27;;;;;;;7.77;100.00;102263.63;5035227;28;20393;-80
2021/11/14 06:51:21;;;;;;;173.40;32.83;;;;;;;7.75;100.00;102262.88;5035754;28;20543;-80
2021/11/14 06:53:46;;;;;;;169.75;33.67;;;;;;;7.68;100.00;102259.69;5035709;28;20116;-80
2021/11/14 06:56:12;;;;;;;159.20;31.95;;;;;;;7.64;100.00;102265.25;5035320;28;20417;-80
2021/11/14 06:58:37;;;;;;;158.50;32.42;;;;;;;7.61;100.00;102271.56;5035902;28;20041;-82
2021/11/14 07:01:03;;;;;;;181.75;35.03;;;;;;;7.58;100.00;102269.09;5035141;28;20034;-79
2021/11/14 07:03:28;;;;;;;188.85;35.83;;;;;;;7.58;100.00;102277.91;5035667;28;20042;-81
2021/11/14 07:05:53;;;;;;;179.13;34.42;;;;;;;7.56;100.00;102277.13;5017918;28;20033;-81
2021/11/14 07:08:19;;;;;;;184.10;35.08;;;;;;;7.56;100.00;102278.91;5035035;28;20034;-81
2021/11/14 07:10:44;;;;;;;176.70;33.67;;;;;;;7.56;100.00;102286.88;5035436;28;20393;-81
2021/11/14 07:13:10;;;;;;;177.18;33.35;;;;;;;7.56;100.00;102297.47;5034905;28;20168;-80
2021/11/14 07:15:36;;;;;;;202.55;37.13;;;;;;;7.58;100.00;102300.88;5035413;28;20480;-81
2021/11/14 07:18:01;;;;;;;185.75;34.20;;;;;;;7.58;100.00;102309.69;5034707;28;20041;-80
2021/11/14 07:20:27;;;;;;;200.05;38.72;;;;;;;7.60;100.00;102312.25;5017714;28;20470;-80
2021/11/14 07:22:52;;;;;;;172.15;33.30;;;;;;;7.61;100.00;102327.19;5035166;28;20473;-81
2021/11/14 07:25:19;;;;;;;196.43;36.08;;;;;;;7.63;100.00;102325.31;5034703;28;20033;-80
2021/11/14 07:27:46;;;;;;;214.98;36.90;;;;;;;7.67;100.00;102328.66;5034988;28;20033;-81
2021/11/14 07:30:12;;;;;;;236.45;38.45;;;;;;;7.71;100.00;102328.41;5034634;28;20057;-80
2021/11/14 07:32:42;;;;;;;215.15;38.13;;;;;;;7.75;100.00;102334.41;5034812;28;20030;-79
2021/11/14 07:35:13;;;;;;;206.95;38.25;;;;;;;7.79;100.00;102335.06;5034716;28;20469;-78
2021/11/14 07:37:39;;;;;;;201.75;38.08;;;;;;;7.82;100.00;102343.69;5034964;28;20083;-76
2021/11/14 07:40:06;;;;;;;198.90;38.28;;;;;;;7.86;100.00;102349.72;5034340;28;20025;-77
2021/11/14 07:42:32;;;;;;;204.30;38.25;;;;;;;7.90;100.00;102346.81;5034622;28;20068;-78
2021/11/14 07:44:58;;;;;;;217.18;38.80;;;;;;;7.94;100.00;102353.66;5034596;28;20466;-79
2021/11/14 07:47:23;;;;;;;204.40;39.83;;;;;;;7.99;100.00;102350.75;5034141;28;20026;-80
2021/11/14 07:49:49;;;;;;;214.63;39.55;;;;;;;8.02;100.00;102350.56;5034454;28;20040;-79
2021/11/14 07:52:14;;;;;;;193.35;37.25;;;;;;;8.03;100.00;102367.31;5034153;28;20478;-79
2021/11/14 07:54:39;;;;;;;202.70;37.10;;;;;;;8.03;100.00;102367.31;5034572;28;20083;-80
2021/11/14 07:57:05;;;;;;;174.23;38.80;;;;;;;8.01;100.00;102375.34;5034153;28;20489;-78
2021/11/14 07:59:30;;;;;;;185.65;37.63;;;;;;;8.01;100.00;102375.34;5034298;28;20112;-80
2021/11/14 08:01:56;;;;;;;174.50;37.38;;;;;;;8.01;100.00;102377.16;5034319;28;20042;-81
2021/11/14 08:04:21;;;;;;;161.95;37.65;;;;;;;7.98;100.00;102380.81;5033941;28;20162;-79
2021/11/14 08:06:47;;;;;;;162.60;35.10;;;;;;;7.97;100.00;102383.56;5034351;28;20036;-80
2021/11/14 08:09:12;;;;;;;161.98;36.30;;;;;;;7.93;100.00;102390.84;5033789;28;20130;-79
2021/11/14 08:11:38;;;;;;;162.00;37.35;;;;;;;7.90;100.00;102389.19;5034143;28;20037;-81
2021/11/14 08:14:03;;;;;;;170.20;37.33;;;;;;;7.91;100.00;102390.94;5034064;28;20457;-78
2021/11/14 08:16:29;;;;;;;177.23;38.30;;;;;;;7.94;100.00;102395.19;5033585;28;20030;-76
2021/11/14 08:18:54;;;;;;;162.98;36.38;;;;;;;7.99;100.00;102395.81;5034116;28;20066;-79
2021/11/14 08:21:19;;;;;;;168.93;37.83;;;;;;;8.02;100.00;102400.09;5033330;28;20485;-81
2021/11/14 08:23:45;;;;;;;150.10;36.25;;;;;;;8.06;100.00;102405.13;5034088;28;20025;-79
2021/11/14 08:26:10;;;;;;;177.30;39.67;;;;;;;8.07;100.00;102412.13;5032332;28;20493;-77
2021/11/14 08:28:36;;;;;;;148.60;36.20;;;;;;;8.10;100.00;102401.34;5033789;28;20043;-79
2021/11/14 08:31:02;;;;;;;148.35;36.47;;;;;;;8.15;100.00;102401.13;5033667;28;20034;-79
2021/11/14 08:33:27;;;;;;;133.35;36.75;;;;;;;8.20;100.00;102401.72;5015982;28;20124;-78
2021/11/14 08:35:53;;;;;;;123.65;35.60;;;;;;;8.22;100.00;102402.47;5033658;28;20057;-80
2021/11/14 08:38:18;;;;;;;149.60;40.00;;;;;;;8.28;100.00;102401.28;5033277;28;20132;-78
2021/11/14 08:40:44;;;;;;;150.65;39.15;;;;;;;8.33;100.00;102401.88;5033553;28;20037;-79
2021/11/14 08:43:09;;;;;;;142.55;39.50;;;;;;;8.38;100.00;102414.91;5033287;28;20577;-78
2021/11/14 08:45:36;;;;;;;135.88;38.47;;;;;;;8.38;100.00;102418.38;5033425;28;20052;-80
2021/11/14 08:48:03;;;;;;;124.38;38.00;;;;;;;8.39;100.00;102420.09;5033619;28;20026;-79
2021/11/14 08:50:29;;;;;;;122.78;37.45;;;;;;;8.40;100.00;102413.00;5032859;28;20040;-76
2021/11/14 08:52:55;;;;;;;123.18;38.55;;;;;;;8.46;100.00;102417.97;5015735;28;20033;-75
2021/11/14 08:55:23;;;;;;;118.30;37.17;;;;;;;8.53;100.00;102414.03;5032853;28;20029;-75
2021/11/14 08:57:51;;;;;;;102.35;36.20;;;;;;;8.55;100.00;102417.44;5033231;28;20030;-75
2021/11/14 09:00:20;;;;;;;103.45;36.10;;;;;;;8.63;100.00;102425.00;5031786;28;20095;-75
2021/11/14 09:02:49;;;;;;;115.03;37.42;;;;;;;8.70;100.00;102430.81;5033310;28;20030;-75
2021/11/14 09:05:14;;;;;;;98.05;36.40;;;;;;;8.75;100.00;102429.59;5032890;28;20104;-75
2021/11/14 09:07:39;;;;;;;89.88;33.42;;;;;;;8.76;100.00;102427.78;5033095;28;20029;-75
2021/11/14 09:10:05;;;;;;;82.45;33.40;;;;;;;8.81;100.00;102433.72;5033057;28;20470;-75
2021/11/14 09:12:31;;;;;;;75.40;31.73;;;;;;;8.85;100.00;102434.38;5032570;28;20313;-75
2021/11/14 09:14:57;;;;;;;70.43;32.45;;;;;;;8.86;100.00;102438.75;5032850;28;20064;-76
2021/11/14 09:17:23;;;;;;;70.95;31.15;;;;;;;8.93;100.00;102440.09;5032601;28;20033;-76
2021/11/14 09:19:49;;;;;;;65.45;30.38;;;;;;;9.01;100.00;102437.84;5015600;28;20029;-76
2021/11/14 09:22:14;;;;;;;64.47;30.40;;;;;;;9.01;100.00;102435.19;5014960;28;20034;-76
2021/11/14 09:24:40;;;;;;;66.60;29.73;;;;;;;9.11;100.00;102446.13;5023300;28;20431;-74
2021/11/14 09:27:07;;;;;;;64.95;29.48;;;;;;;9.16;100.00;102444.91;4976380;28;20053;-76
2021/11/14 09:29:32;;;;;;;62.38;29.75;;;;;;;9.20;100.00;102453.56;5009695;28;20038;-79
2021/11/14 09:31:58;;;;;;;56.47;29.48;;;;;;;9.23;100.00;102452.53;4992816;28;20034;-77
2021/11/14 09:34:23;;;;;;;55.65;29.20;;;;;;;9.21;100.00;102452.63;5009978;28;20038;-76
2021/11/14 09:36:49;;;;;;;54.20;28.38;;;;;;;9.26;100.00;102460.31;5009951;28;20046;-75
2021/11/14 09:39:15;;;;;;;57.58;29.13;;;;;;;9.32;100.00;102462.59;5010302;28;20058;-75
2021/11/14 09:41:44;;;;;;;54.38;27.63;;;;;;;9.32;100.00;102465.25;5009999;28;20081;-77
2021/11/14 09:44:13;;;;;;;53.70;28.45;;;;;;;9.28;99.69;102475.19;5009987;28;20038;-75
2021/11/14 09:46:45;;;;;;;56.65;29.38;;;;;;;9.32;99.84;102468.75;5009534;28;20066;-76
2021/11/14 09:49:10;;;;;;;54.33;28.95;;;;;;;9.36;99.93;102477.41;5008554;28;20065;-73
2021/11/14 09:51:36;;;;;;;50.03;25.67;;;;;;;9.37;98.79;102486.22;4992008;28;20061;-76
2021/11/14 09:54:01;;;;;;;49.95;27.00;;;;;;;9.41;99.59;102495.75;5010379;28;20078;-75
2021/11/14 09:56:27;;;;;;;53.97;27.38;;;;;;;9.39;99.73;102487.84;5009483;28;20037;-74
2021/11/14 09:58:52;;;;;;;51.75;27.38;;;;;;;9.41;100.00;102493.94;5009881;28;20045;-74
2021/11/14 10:01:18;;;;;;;45.92;26.10;;;;;;;9.41;99.77;102499.25;5009115;28;20447;-73
2021/11/14 10:03:45;;;;;;;54.03;27.17;;;;;;;9.46;100.00;102506.94;5009927;28;20474;-74
2021/11/14 10:06:11;;;;;;;54.20;26.73;;;;;;;9.51;100.00;102492.44;5009804;28;20042;-75
2021/11/14 10:08:44;;;;;;;46.78;26.30;;;;;;;9.55;100.00;102500.22;5009314;28;20036;-74
2021/11/14 10:11:09;;;;;;;46.05;25.27;;;;;;;9.59;99.70;102502.59;5009746;28;20121;-75
2021/11/14 10:13:36;;;;;;;53.78;27.33;;;;;;;9.63;99.61;102500.59;5013071;28;20116;-73
2021/11/14 10:16:12;;;;;;;42.65;24.02;;;;;;;9.64;97.70;102499.66;5013792;28;20493;-75
2021/11/14 10:18:40;;;;;;;44.90;25.48;;;;;;;9.74;98.54;102503.47;5013515;28;20034;-74
2021/11/14 10:21:06;;;;;;;45.45;25.77;;;;;;;9.77;97.06;102497.13;5013650;28;20045;-74
2021/11/14 10:23:33;;;;;;;51.03;25.90;;;;;;;9.82;96.92;102495.03;5012939;28;20492;-75
2021/11/14 10:26:10;;;;;;;40.58;23.27;;;;;;;9.81;96.35;102507.47;5013422;28;20065;-75
2021/11/14 10:28:37;;;;;;;44.13;23.10;;;;;;;9.81;96.91;102510.13;5013354;28;20030;-75
2021/11/14 10:31:05;;;;;;;39.78;23.33;;;;;;;9.81;96.72;102507.47;5012290;28;20125;-75
2021/11/14 10:33:30;;;;;;;44.28;23.65;;;;;;;9.81;96.26;102510.13;5039599;28;20029;-78
2021/11/14 10:35:57;;;;;;;40.78;23.17;;;;;;;9.81;97.86;102515.44;5046598;28;20029;-78
2021/11/14 10:38:26;;;;;;;36.35;21.60;;;;;;;9.79;95.77;102522.69;5055343;28;20059;-79
2021/11/14 10:40:57;;;;;;;35.00;20.92;;;;;;;9.81;95.72;102520.78;5056406;28;20028;-78
2021/11/14 10:43:23;;;;;;;37.88;21.98;;;;;;;9.79;96.33;102516.47;5055556;28;20037;-77
2021/11/14 10:45:51;;;;;;;39.70;21.50;;;;;;;9.80;96.26;102526.19;5055948;28;20021;-77
2021/11/14 10:48:18;;;;;;;38.50;21.40;;;;;;;9.75;96.00;102525.59;5055602;28;20028;-80
2021/11/14 10:50:49;;;;;;;34.38;20.02;;;;;;;9.76;95.28;102533.47;5055065;28;20037;-79
2021/11/14 10:53:22;;;;;;;34.17;20.38;;;;;;;9.86;96.89;102544.41;5055776;28;20032;-80
2021/11/14 10:55:52;;;;;;;32.85;20.23;;;;;;;9.84;95.67;102544.50;5055114;28;20029;-79
2021/11/14 10:58:21;;;;;;;33.35;19.08;;;;;;;9.85;95.59;102537.38;5037664;28;20091;-80
2021/11/14 11:00:49;;;;;;;34.70;19.70;;;;;;;9.85;95.74;102540.03;5054913;28;20465;-79
2021/11/14 11:03:15;;;;;;;30.83;18.85;;;;;;;9.88;94.98;102542.50;5055266;28;20021;-79
2021/11/14 11:05:41;;;;;;;34.78;19.23;;;;;;;9.94;95.83;102542.16;5037265;28;20147;-79
2021/11/14 11:08:08;;;;;;;30.58;18.75;;;;;;;10.01;95.52;102543.47;5055432;28;20048;-79